createdAt,value
2023-04-01T00:00:23.292Z,8.20
2023-04-01T00:02:51.144Z,7.57
2023-04-01T00:05:19.127Z,7.30
2023-04-01T00:07:48.166Z,6.30
2023-04-01T00:10:17.207Z,7.33
2023-04-01T00:12:46.105Z,8.80
2023-04-01T00:15:14.347Z,6.53
2023-04-01T00:17:42.088Z,6.20
2023-04-01T00:20:10.695Z,6.60
2023-04-01T00:22:38.485Z,7.23
2023-04-01T00:25:07.011Z,9.73
2023-04-01T00:27:36.178Z,6.27
2023-04-01T00:30:04.018Z,6.27
2023-04-01T00:32:32.268Z,9.73
2023-04-01T00:35:00.475Z,7.30
2023-04-01T00:37:28.597Z,9.70
2023-04-01T00:39:56.491Z,6.97
2023-04-01T00:42:24.581Z,7.20
2023-04-01T00:44:55.813Z,7.53
2023-04-01T00:47:24.283Z,9.83
2023-04-01T00:49:54.894Z,6.83
2023-04-01T00:52:25.257Z,9.97
2023-04-01T00:54:58.144Z,8.20
2023-04-01T00:57:31.663Z,6.53
2023-04-01T01:00:01.152Z,6.50
2023-04-01T01:02:28.931Z,9.70
2023-04-01T01:04:56.725Z,10.03
2023-04-01T01:07:35.378Z,6.23
2023-04-01T01:10:08.495Z,5.70
2023-04-01T01:12:42.161Z,8.13
2023-04-01T01:15:18.647Z,6.10
2023-04-01T01:17:52.194Z,6.43
2023-04-01T01:20:55.217Z,7.37
2023-04-01T01:23:51.054Z,7.32
2023-04-01T01:26:46.946Z,7.00
2023-04-01T01:29:31.294Z,6.80
2023-04-01T01:32:10.275Z,7.83
2023-04-01T01:34:45.888Z,6.90
2023-04-01T01:37:17.378Z,9.73
2023-04-01T01:39:49.334Z,6.13
2023-04-01T01:42:20.076Z,7.00
2023-04-01T01:44:50.775Z,6.87
2023-04-01T01:47:21.087Z,5.70
2023-04-01T01:49:49.125Z,7.03
2023-04-01T01:52:19.479Z,7.97
2023-04-01T01:54:50.835Z,5.70
2023-04-01T01:57:21.440Z,5.50
2023-04-01T01:59:50.575Z,6.90
2023-04-01T02:02:19.606Z,5.73
2023-04-01T02:04:48.475Z,6.37
2023-04-01T02:07:21.867Z,7.37
2023-04-01T02:09:50.207Z,8.10
2023-04-01T02:12:20.640Z,6.80
2023-04-01T02:14:52.494Z,7.47
2023-04-01T02:17:21.812Z,7.27
2023-04-01T02:19:53.895Z,7.95
2023-04-01T02:22:26.237Z,6.03
2023-04-01T02:24:59.188Z,6.77
2023-04-01T02:27:27.362Z,7.40
2023-04-01T02:29:55.213Z,8.90
2023-04-01T02:32:23.440Z,5.30
2023-04-01T02:34:52.067Z,8.07
2023-04-01T02:37:20.092Z,6.83
2023-04-01T02:39:49.174Z,5.30
2023-04-01T02:42:17.531Z,6.30
2023-04-01T02:44:45.256Z,6.00
2023-04-01T02:47:12.977Z,6.70
2023-04-01T02:49:40.826Z,5.50
2023-04-01T02:52:08.598Z,6.67
2023-04-01T02:54:36.311Z,6.17
2023-04-01T02:57:05.433Z,5.43
2023-04-01T02:59:33.196Z,5.70
2023-04-01T03:02:01.084Z,5.90
2023-04-01T03:04:28.796Z,6.30
2023-04-01T03:06:56.498Z,6.17
2023-04-01T03:09:24.281Z,6.43
2023-04-01T03:11:52.005Z,6.40
2023-04-01T03:14:21.258Z,5.60
2023-04-01T03:16:49.154Z,6.73
2023-04-01T03:19:16.858Z,6.50
2023-04-01T03:21:44.540Z,7.20
2023-04-01T03:24:12.254Z,5.93
2023-04-01T03:26:40.152Z,5.60
2023-04-01T03:29:07.911Z,6.77
2023-04-01T03:31:37.036Z,9.73
2023-04-01T03:34:04.735Z,12.73
2023-04-01T03:36:32.489Z,7.83
2023-04-01T03:39:00.229Z,5.93
2023-04-01T03:41:28.597Z,6.23
2023-04-01T03:43:56.336Z,6.10
2023-04-01T03:46:24.559Z,8.23
2023-04-01T03:48:53.672Z,6.97
2023-04-01T03:51:21.430Z,6.40
2023-04-01T03:53:49.192Z,6.47
2023-04-01T03:56:16.910Z,6.43
2023-04-01T03:58:44.776Z,7.30
2023-04-01T04:01:17.271Z,5.50
2023-04-01T04:03:46.842Z,9.23
2023-04-01T04:06:16.520Z,5.87
2023-04-01T04:08:45.185Z,6.00
2023-04-01T04:11:13.314Z,6.47
2023-04-01T04:13:41.189Z,5.73
2023-04-01T04:16:09.469Z,6.30
2023-04-01T04:18:37.373Z,7.17
2023-04-01T04:21:05.677Z,6.40
2023-04-01T04:23:35.040Z,6.83
2023-04-01T04:26:05.347Z,6.30
2023-04-01T04:28:33.767Z,6.73
2023-04-01T04:31:01.840Z,7.60
2023-04-01T04:33:29.994Z,5.70
2023-04-01T04:35:59.463Z,6.47
2023-04-01T04:38:28.212Z,7.40
2023-04-01T04:40:57.556Z,6.67
2023-04-01T04:43:25.296Z,7.83
2023-04-01T04:45:53.059Z,5.40
2023-04-01T04:48:21.313Z,5.87
2023-04-01T04:50:50.483Z,5.47
2023-04-01T04:53:19.040Z,6.30
2023-04-01T04:55:47.208Z,5.80
2023-04-01T04:58:16.556Z,5.77
2023-04-01T05:00:44.523Z,5.30
2023-04-01T05:03:13.838Z,5.67
2023-04-01T05:05:41.692Z,6.60
2023-04-01T05:08:09.418Z,8.43
2023-04-01T05:10:37.112Z,5.60
2023-04-01T05:13:04.815Z,6.10
2023-04-01T05:15:34.263Z,6.20
2023-04-01T05:18:02.211Z,5.60
2023-04-01T05:20:29.970Z,5.70
2023-04-01T05:22:58.146Z,5.20
2023-04-01T05:25:26.186Z,5.70
2023-04-01T05:27:54.013Z,7.57
2023-04-01T05:30:22.286Z,5.80
2023-04-01T05:32:51.400Z,5.90
2023-04-01T05:35:19.168Z,5.50
2023-04-01T05:37:46.875Z,5.70
2023-04-01T05:40:14.681Z,6.00
2023-04-01T05:42:42.421Z,7.37
2023-04-01T05:45:10.996Z,5.80
2023-04-01T05:47:38.912Z,5.20
2023-04-01T05:50:08.568Z,5.50
2023-04-01T05:52:36.334Z,6.10
2023-04-01T05:55:04.286Z,8.17
2023-04-01T05:57:32.066Z,5.60
2023-04-01T05:59:59.840Z,5.50
2023-04-01T06:02:28.203Z,6.20
2023-04-01T06:05:05.613Z,5.90
2023-04-01T06:07:34.662Z,6.63
2023-04-01T06:10:02.373Z,6.47
2023-04-01T06:12:45.229Z,7.00
2023-04-01T06:15:26.273Z,7.10
2023-04-01T06:18:07.043Z,6.37
2023-04-01T06:20:41.088Z,7.00
2023-04-01T06:23:35.729Z,5.83
2023-04-01T06:26:18.256Z,8.03
2023-04-01T06:29:10.695Z,5.30
2023-04-01T06:32:02.849Z,8.40
2023-04-01T06:34:58.308Z,8.53
2023-04-01T06:37:42.724Z,6.60
2023-04-01T06:40:43.178Z,6.37
2023-04-01T06:43:21.482Z,6.03
2023-04-01T06:45:55.872Z,6.13
2023-04-01T06:48:40.447Z,5.67
2023-04-01T06:51:18.960Z,6.43
2023-04-01T06:53:56.164Z,5.60
2023-04-01T06:56:29.583Z,5.87
2023-04-01T06:59:00.493Z,5.60
2023-04-01T07:01:32.010Z,6.07
2023-04-01T07:04:03.395Z,5.93
2023-04-01T07:06:34.464Z,6.22
2023-04-01T07:09:07.451Z,4.90
2023-04-01T07:11:39.389Z,4.80
2023-04-01T07:14:15.654Z,6.03
2023-04-01T07:16:49.509Z,7.43
2023-04-01T07:19:23.981Z,5.10
2023-04-01T07:21:56.544Z,5.20
2023-04-01T07:24:27.903Z,6.33
2023-04-01T07:26:58.818Z,5.20
2023-04-01T07:29:28.157Z,5.90
2023-04-01T07:32:18.968Z,5.77
2023-04-01T07:35:05.060Z,4.90
2023-04-01T07:37:39.788Z,6.57
2023-04-01T07:40:19.137Z,5.20
2023-04-01T07:43:03.271Z,7.10
2023-04-01T07:45:36.734Z,5.87
2023-04-01T07:48:19.505Z,5.97
2023-04-01T07:50:57.457Z,4.70
2023-04-01T07:53:34.543Z,5.80
2023-04-01T07:56:08.568Z,5.57
2023-04-01T07:58:48.264Z,5.90
2023-04-01T08:01:25.788Z,7.20
2023-04-01T08:04:18.208Z,5.20
2023-04-01T08:06:52.843Z,5.30
2023-04-01T08:09:29.594Z,5.30
2023-04-01T08:12:06.652Z,4.70
2023-04-01T08:14:42.437Z,4.70
2023-04-01T08:17:17.458Z,5.30
2023-04-01T08:19:58.297Z,5.00
2023-04-01T08:22:29.844Z,5.20
2023-04-01T08:25:03.173Z,4.93
2023-04-01T08:27:38.549Z,5.10
2023-04-01T08:30:19.551Z,5.47
2023-04-01T08:32:53.130Z,5.10
2023-04-01T08:35:32.081Z,5.63
2023-04-01T08:38:07.147Z,6.23
2023-04-01T08:40:47.370Z,6.53
2023-04-01T08:43:27.291Z,6.00
2023-04-01T08:46:27.916Z,5.00
2023-04-01T08:49:08.478Z,4.80
2023-04-01T08:52:00.565Z,5.63
2023-04-01T08:54:53.980Z,5.30
2023-04-01T08:57:36.062Z,5.40
2023-04-01T09:00:18.171Z,5.00
2023-04-01T09:03:14.447Z,5.10
2023-04-01T09:06:01.899Z,4.80
2023-04-01T09:08:44.652Z,5.30
2023-04-01T09:11:24.204Z,6.57
2023-04-01T09:14:19.396Z,5.77
2023-04-01T09:17:30.624Z,5.30
2023-04-01T09:20:26.316Z,5.80
2023-04-01T09:23:12.973Z,5.03
2023-04-01T09:26:00.224Z,4.87
2023-04-01T09:28:33.841Z,5.73
2023-04-01T09:31:14.453Z,5.20
2023-04-01T09:34:17.715Z,6.73
2023-04-01T09:37:01.133Z,5.00
2023-04-01T09:39:38.766Z,5.33
2023-04-01T09:42:31.641Z,4.70
2023-04-01T09:45:01.677Z,5.50
2023-04-01T09:47:45.545Z,6.23
2023-04-01T09:50:34.153Z,4.67
2023-04-01T09:53:16.743Z,4.50
2023-04-01T09:56:16.332Z,4.70
2023-04-01T09:59:12.148Z,4.90
2023-04-01T10:02:03.072Z,4.90
2023-04-01T10:05:21.851Z,4.53
2023-04-01T10:08:13.443Z,4.70
2023-04-01T10:11:18.337Z,4.60
2023-04-01T10:14:09.439Z,4.83
2023-04-01T10:17:10.932Z,5.43
2023-04-01T10:20:07.807Z,4.60
2023-04-01T10:23:04.336Z,4.90
2023-04-01T10:26:04.564Z,4.70
2023-04-01T10:28:50.253Z,5.60
2023-04-01T10:31:55.199Z,6.30
2023-04-01T10:34:49.363Z,6.40
2023-04-01T10:37:36.879Z,4.70
2023-04-01T10:40:39.657Z,4.60
2023-04-01T10:43:37.603Z,4.80
2023-04-01T10:46:29.396Z,4.73
2023-04-01T10:49:36.556Z,4.53
2023-04-01T10:52:48.428Z,5.00
2023-04-01T10:55:51.097Z,6.35
2023-04-01T10:58:52.861Z,4.87
2023-04-01T11:02:10.095Z,5.00
2023-04-01T11:05:20.641Z,5.03
2023-04-01T11:08:21.983Z,5.30
2023-04-01T11:11:27.964Z,4.60
2023-04-01T11:14:34.338Z,4.97
2023-04-01T11:17:32.840Z,4.80
2023-04-01T11:20:44.660Z,4.70
2023-04-01T11:23:38.553Z,5.10
2023-04-01T11:26:15.517Z,4.63
2023-04-01T11:29:28.368Z,4.50
2023-04-01T11:32:04.455Z,4.87
2023-04-01T11:34:58.498Z,5.50
2023-04-01T11:37:38.464Z,5.93
2023-04-01T11:40:17.054Z,6.03
2023-04-01T11:42:51.486Z,4.97
2023-04-01T11:45:30.783Z,5.10
2023-04-01T11:48:16.375Z,4.70
2023-04-01T11:51:03.114Z,5.00
2023-04-01T11:53:43.830Z,6.47
2023-04-01T11:56:23.282Z,6.13
2023-04-01T11:59:06.592Z,4.90
2023-04-01T12:01:46.670Z,4.70
2023-04-01T12:04:55.225Z,5.27
2023-04-01T12:07:39.064Z,4.73
2023-04-01T12:10:19.157Z,4.90
2023-04-01T12:13:01.662Z,5.23
2023-04-01T12:15:38.464Z,5.60
2023-04-01T12:18:18.305Z,5.20
2023-04-01T12:20:52.076Z,5.00
2023-04-01T12:23:52.150Z,5.00
2023-04-01T12:26:39.769Z,4.83
2023-04-01T12:29:28.006Z,6.40
2023-04-01T12:32:03.817Z,7.10
2023-04-01T12:34:46.419Z,5.10
2023-04-01T12:37:22.415Z,5.40
2023-04-01T12:40:25.947Z,5.20
2023-04-01T12:43:06.438Z,5.10
2023-04-01T12:45:35.531Z,5.20
2023-04-01T12:48:29.880Z,5.40
2023-04-01T12:51:33.229Z,5.77
2023-04-01T12:54:29.605Z,5.07
2023-04-01T12:57:12.481Z,5.10
2023-04-01T12:59:56.779Z,5.17
2023-04-01T13:02:39.629Z,5.33
2023-04-01T13:05:35.423Z,5.83
2023-04-01T13:08:28.598Z,5.93
2023-04-01T13:11:10.561Z,6.47
2023-04-01T13:13:59.754Z,6.10
2023-04-01T13:16:31.542Z,5.10
2023-04-01T13:19:05.796Z,5.60
2023-04-01T13:21:45.772Z,5.00
2023-04-01T13:24:31.423Z,5.03
2023-04-01T13:27:10.113Z,5.40
2023-04-01T13:29:42.842Z,6.00
2023-04-01T13:32:33.382Z,5.60
2023-04-01T13:35:23.420Z,5.20
2023-04-01T13:38:06.559Z,5.23
2023-04-01T13:40:55.797Z,6.13
2023-04-01T13:43:37.834Z,5.23
2023-04-01T13:46:24.696Z,5.00
2023-04-01T13:49:10.577Z,5.20
2023-04-01T13:51:58.387Z,4.87
2023-04-01T13:54:47.339Z,5.20
2023-04-01T13:57:33.282Z,4.90
2023-04-01T14:00:18.769Z,5.40
2023-04-01T14:03:03.217Z,5.70
2023-04-01T14:05:46.176Z,5.23
2023-04-01T14:08:28.318Z,5.13
2023-04-01T14:11:07.718Z,5.30
2023-04-01T14:13:45.377Z,5.87
2023-04-01T14:16:45.503Z,5.30
2023-04-01T14:19:31.142Z,5.87
2023-04-01T14:22:07.579Z,6.33
2023-04-01T14:24:51.746Z,5.50
2023-04-01T14:27:43.861Z,5.83
2023-04-01T14:30:27.064Z,6.83
2023-04-01T14:33:03.209Z,5.63
2023-04-01T14:35:39.717Z,7.57
2023-04-01T14:38:23.541Z,6.13
2023-04-01T14:40:57.694Z,13.10
2023-04-01T14:44:07.498Z,6.97
2023-04-01T14:47:23.181Z,8.10
2023-04-01T14:49:55.086Z,7.57
2023-04-01T14:52:29.591Z,5.67
2023-04-01T14:54:59.737Z,5.57
2023-04-01T14:57:30.203Z,7.13
2023-04-01T15:00:03.321Z,6.80
2023-04-01T15:02:45.413Z,7.10
2023-04-01T15:05:23.403Z,5.80
2023-04-01T15:08:06.201Z,5.90
2023-04-01T15:10:53.411Z,7.20
2023-04-01T15:13:46.969Z,5.70
2023-04-01T15:16:24.806Z,6.10
2023-04-01T15:19:01.981Z,6.83
2023-04-01T15:21:52.034Z,5.70
2023-04-01T15:24:30.335Z,6.93
2023-04-01T15:27:30.405Z,5.80
2023-04-01T15:30:07.290Z,5.63
2023-04-01T15:32:47.913Z,6.30
2023-04-01T15:35:25.692Z,6.53
2023-04-01T15:37:57.602Z,7.60
2023-04-01T15:40:32.321Z,6.90
2023-04-01T15:43:14.292Z,6.13
2023-04-01T15:45:51.120Z,6.47
2023-04-01T15:48:36.517Z,6.73
2023-04-01T15:51:14.670Z,6.00
2023-04-01T15:54:11.588Z,8.70
2023-04-01T15:56:51.625Z,6.43
2023-04-01T15:59:41.803Z,7.13
2023-04-01T16:02:19.598Z,7.07
2023-04-01T16:04:52.220Z,6.50
2023-04-01T16:07:49.342Z,8.10
2023-04-01T16:10:33.295Z,8.20
2023-04-01T16:13:22.548Z,7.30
2023-04-01T16:16:01.995Z,7.17
2023-04-01T16:18:42.770Z,6.80
2023-04-01T16:21:16.562Z,6.87
2023-04-01T16:23:51.881Z,8.40
2023-04-01T16:26:28.535Z,6.30
2023-04-01T16:29:06.001Z,10.23
2023-04-01T16:31:39.530Z,8.23
2023-04-01T16:34:15.637Z,8.30
2023-04-01T16:36:50.295Z,7.20
2023-04-01T16:39:29.271Z,7.10
2023-04-01T16:42:16.511Z,7.20
2023-04-01T16:44:56.349Z,7.70
2023-04-01T16:47:35.369Z,8.10
2023-04-01T16:50:19.787Z,6.90
2023-04-01T16:53:00.767Z,7.90
2023-04-01T16:55:37.700Z,7.40
2023-04-01T16:58:05.487Z,7.20
2023-04-01T17:00:41.439Z,7.37
2023-04-01T17:03:18.601Z,7.03
2023-04-01T17:05:59.490Z,7.13
2023-04-01T17:08:38.927Z,7.33
2023-04-01T17:11:16.119Z,6.67
2023-04-01T17:13:53.938Z,7.17
2023-04-01T17:16:54.192Z,7.47
2023-04-01T17:19:41.380Z,7.33
2023-04-01T17:22:20.834Z,7.13
2023-04-01T17:25:00.216Z,7.47
2023-04-01T17:27:38.192Z,7.37
2023-04-01T17:30:25.842Z,7.30
2023-04-01T17:33:29.887Z,7.20
2023-04-01T17:36:01.609Z,7.57
2023-04-01T17:38:50.542Z,8.43
2023-04-01T17:41:27.971Z,8.03
2023-04-01T17:44:05.624Z,7.47
2023-04-01T17:46:41.869Z,7.97
2023-04-01T17:49:25.541Z,7.47
2023-04-01T17:52:01.031Z,7.87
2023-04-01T17:54:37.191Z,7.80
2023-04-01T17:57:30.728Z,7.90
2023-04-01T18:00:04.814Z,7.50
2023-04-01T18:02:45.491Z,7.87
2023-04-01T18:05:28.789Z,7.90
2023-04-01T18:08:13.648Z,7.60
2023-04-01T18:10:53.404Z,7.67
2023-04-01T18:13:50.550Z,11.13
2023-04-01T18:16:36.551Z,7.63
2023-04-01T18:19:17.047Z,6.90
2023-04-01T18:21:50.123Z,7.70
2023-04-01T18:24:24.880Z,7.43
2023-04-01T18:27:04.092Z,7.93
2023-04-01T18:29:41.451Z,8.10
2023-04-01T18:32:28.777Z,7.90
2023-04-01T18:35:04.383Z,7.53
2023-04-01T18:37:38.821Z,7.63
2023-04-01T18:40:17.676Z,9.90
2023-04-01T18:42:57.949Z,7.60
2023-04-01T18:45:30.903Z,8.33
2023-04-01T18:48:08.844Z,7.53
2023-04-01T18:50:43.560Z,7.60
2023-04-01T18:53:21.232Z,7.97
2023-04-01T18:55:51.541Z,8.30
2023-04-01T18:58:26.284Z,7.23
2023-04-01T19:01:05.762Z,7.73
2023-04-01T19:03:41.703Z,7.00
2023-04-01T19:06:19.114Z,7.37
2023-04-01T19:08:48.410Z,8.80
2023-04-01T19:11:28.090Z,7.90
2023-04-01T19:14:07.137Z,7.20
2023-04-01T19:16:48.202Z,7.20
2023-04-01T19:19:32.077Z,10.90
2023-04-01T19:22:03.142Z,7.27
2023-04-01T19:25:04.960Z,7.57
2023-04-01T19:27:38.480Z,7.47
2023-04-01T19:30:27.309Z,7.63
2023-04-01T19:33:04.267Z,9.50
2023-04-01T19:35:40.587Z,7.50
2023-04-01T19:38:16.657Z,8.50
2023-04-01T19:40:53.891Z,10.87
2023-04-01T19:43:40.218Z,7.07
2023-04-01T19:46:19.477Z,8.03
2023-04-01T19:49:06.062Z,6.60
2023-04-01T19:51:39.279Z,8.50
2023-04-01T19:54:18.692Z,6.43
2023-04-01T19:56:54.599Z,7.20
2023-04-01T19:59:30.799Z,7.70
2023-04-01T20:02:03.679Z,6.87
2023-04-01T20:04:35.617Z,7.73
2023-04-01T20:07:11.406Z,6.80
2023-04-01T20:09:51.962Z,7.40
2023-04-01T20:12:36.240Z,7.10
2023-04-01T20:15:06.489Z,7.30
2023-04-01T20:17:41.510Z,7.83
2023-04-01T20:20:22.832Z,6.63
2023-04-01T20:23:07.336Z,6.80
2023-04-01T20:25:43.262Z,7.13
2023-04-01T20:28:21.802Z,6.80
2023-04-01T20:31:05.680Z,7.23
2023-04-01T20:33:55.882Z,7.30
2023-04-01T20:36:29.012Z,7.13
2023-04-01T20:39:15.764Z,7.30
2023-04-01T20:41:56.553Z,7.43
2023-04-01T20:44:31.972Z,7.00
2023-04-01T20:47:14.580Z,7.07
2023-04-01T20:49:51.802Z,7.70
2023-04-01T20:52:31.675Z,8.60
2023-04-01T20:55:21.659Z,8.03
2023-04-01T20:58:00.135Z,7.83
2023-04-01T21:00:40.080Z,7.10
2023-04-01T21:03:15.889Z,7.37
2023-04-01T21:06:01.762Z,7.00
2023-04-01T21:08:42.180Z,6.97
2023-04-01T21:11:19.257Z,7.27
2023-04-01T21:13:58.624Z,7.13
2023-04-01T21:16:41.157Z,10.00
2023-04-01T21:19:26.526Z,7.50
2023-04-01T21:22:20.224Z,8.30
2023-04-01T21:25:22.076Z,7.23
2023-04-01T21:28:10.750Z,7.80
2023-04-01T21:30:54.487Z,8.27
2023-04-01T21:33:39.575Z,8.33
2023-04-01T21:36:19.683Z,8.53
2023-04-01T21:39:01.513Z,9.33
2023-04-01T21:41:45.368Z,8.43
2023-04-01T21:44:40.620Z,7.70
2023-04-01T21:47:43.772Z,8.60
2023-04-01T21:50:46.113Z,7.90
2023-04-01T21:53:58.590Z,7.30
2023-04-01T21:57:11.244Z,8.90
2023-04-01T22:00:17.095Z,12.00
2023-04-01T22:03:26.821Z,10.30
2023-04-01T22:06:04.655Z,7.57
2023-04-01T22:08:50.811Z,7.93
2023-04-01T22:11:33.410Z,8.10
2023-04-01T22:14:08.394Z,8.97
2023-04-01T22:16:41.711Z,7.83
2023-04-01T22:19:17.100Z,9.57
2023-04-01T22:21:55.059Z,8.50
2023-04-01T22:24:28.691Z,8.27
2023-04-01T22:27:02.455Z,8.03
2023-04-01T22:29:37.522Z,8.00
2023-04-01T22:32:17.372Z,7.70
2023-04-01T22:34:51.914Z,9.37
2023-04-01T22:37:28.386Z,8.03
2023-04-01T22:40:16.711Z,8.20
2023-04-01T22:42:46.520Z,7.90
2023-04-01T22:45:37.816Z,7.30
2023-04-01T22:48:11.714Z,9.13
2023-04-01T22:50:48.090Z,7.47
2023-04-01T22:53:23.714Z,9.33
2023-04-01T22:55:54.091Z,7.60
2023-04-01T22:58:28.190Z,8.40
2023-04-01T23:00:59.899Z,9.20
2023-04-01T23:03:32.122Z,8.10
2023-04-01T23:06:01.688Z,11.60
2023-04-01T23:08:56.781Z,8.30
2023-04-01T23:11:28.088Z,8.00
2023-04-01T23:14:08.831Z,7.97
2023-04-01T23:16:41.025Z,10.27
2023-04-01T23:19:17.321Z,10.70
2023-04-01T23:21:51.584Z,10.20
2023-04-01T23:24:27.666Z,9.90
2023-04-01T23:27:01.129Z,9.90
2023-04-01T23:29:29.365Z,7.70
2023-04-01T23:32:01.635Z,10.83
2023-04-01T23:34:32.052Z,8.47
2023-04-01T23:37:03.501Z,8.90
2023-04-01T23:39:36.596Z,8.70
2023-04-01T23:42:07.664Z,10.00
2023-04-01T23:44:37.378Z,9.40
2023-04-01T23:47:06.607Z,8.97
2023-04-01T23:49:40.349Z,9.40
2023-04-01T23:52:15.474Z,11.60
2023-04-01T23:54:49.653Z,9.27
2023-04-01T23:57:22.899Z,10.00
